createdAt,value
2022-11-05T00:21:03.352Z,21.60
2022-11-05T00:43:06.885Z,18.60
2022-11-05T01:04:53.097Z,7.00
2022-11-05T01:26:38.934Z,5.10
2022-11-05T01:48:29.994Z,8.20
2022-11-05T02:10:18.171Z,7.90
2022-11-05T02:32:12.002Z,6.90
2022-11-05T02:54:03.664Z,6.00
2022-11-05T03:15:57.994Z,6.60
2022-11-05T03:59:31.503Z,5.90
2022-11-05T04:21:34.771Z,6.10
2022-11-05T04:43:21.684Z,8.10
2022-11-05T05:05:10.010Z,6.70
2022-11-05T05:26:55.895Z,8.00
2022-11-05T05:48:42.376Z,8.30
2022-11-05T06:10:28.697Z,7.20
2022-11-05T06:32:14.649Z,6.70
2022-11-05T06:54:00.415Z,7.80
2022-11-05T07:15:46.907Z,7.80
2022-11-05T07:37:33.559Z,7.20
2022-11-05T07:59:19.592Z,9.00
2022-11-05T08:21:09.061Z,9.90
2022-11-05T08:43:00.274Z,7.70
2022-11-05T09:04:47.158Z,7.90
2022-11-05T09:26:33.328Z,10.40
2022-11-05T09:48:22.916Z,7.70
2022-11-05T10:10:27.987Z,8.40
2022-11-05T10:32:20.153Z,6.00
2022-11-05T10:54:17.098Z,10.40
2022-11-05T11:16:18.821Z,12.10
2022-11-05T11:38:06.209Z,12.60
2022-11-05T12:00:09.684Z,15.80
2022-11-05T12:22:04.301Z,14.60
2022-11-05T12:44:10.118Z,13.30
2022-11-05T13:06:05.431Z,16.00
2022-11-05T13:27:59.452Z,15.50
2022-11-05T14:11:38.647Z,13.50
2022-11-05T14:33:39.189Z,14.10
2022-11-05T14:55:31.627Z,17.70
2022-11-05T15:17:23.070Z,20.00
2022-11-05T15:39:29.917Z,14.30
2022-11-05T16:01:25.547Z,19.20
2022-11-05T16:23:41.147Z,16.00
2022-11-05T16:45:27.837Z,21.70
2022-11-05T17:07:13.708Z,22.60
2022-11-05T17:28:59.490Z,21.00
2022-11-05T17:50:49.982Z,23.40
2022-11-05T18:12:35.850Z,26.30
2022-11-05T18:34:21.665Z,30.30
2022-11-05T18:56:12.626Z,29.00
2022-11-05T19:17:58.671Z,25.80
2022-11-05T19:39:44.570Z,32.20
2022-11-05T20:01:31.912Z,28.20
2022-11-05T20:23:18.781Z,29.70
2022-11-05T20:45:05.311Z,28.60
2022-11-05T21:06:51.463Z,31.00
2022-11-05T21:28:39.181Z,32.00
2022-11-05T21:50:45.530Z,34.10
2022-11-05T22:12:32.364Z,31.30
2022-11-05T22:34:18.407Z,27.70
2022-11-05T22:56:07.499Z,29.20
2022-11-05T23:18:11.258Z,33.00
2022-11-05T23:39:58.252Z,32.20
